createdAt,value
2022-12-05T00:08:04.794Z,0.89
2022-12-05T00:18:08.878Z,0.93
2022-12-05T00:28:12.772Z,0.84
2022-12-05T00:38:17.358Z,0.86
2022-12-05T00:48:21.325Z,0.89
2022-12-05T00:58:24.894Z,0.83
2022-12-05T01:08:29.480Z,0.91
2022-12-05T01:18:33.551Z,0.89
2022-12-05T01:28:38.427Z,0.81
2022-12-05T01:38:44.276Z,0.87
2022-12-05T01:48:48.345Z,0.81
2022-12-05T01:58:54.238Z,0.63
2022-12-05T02:08:58.011Z,0.38
2022-12-05T02:19:16.895Z,0.18
2022-12-05T02:29:58.818Z,0.01
2022-12-05T02:40:15.836Z,-0.07
2022-12-05T02:50:26.564Z,-0.17
2022-12-05T03:00:30.527Z,-0.24
2022-12-05T03:10:36.793Z,-0.20
2022-12-05T03:20:49.931Z,-0.13
2022-12-05T03:30:55.933Z,-0.08
2022-12-05T03:41:15.270Z,-0.07
2022-12-05T03:51:23.818Z,0.01
2022-12-05T04:01:31.023Z,0.18
2022-12-05T04:11:40.720Z,0.51
2022-12-05T04:21:48.463Z,0.79
2022-12-05T04:31:58.334Z,0.77
2022-12-05T04:42:06.837Z,0.81
2022-12-05T04:52:13.251Z,0.88
2022-12-05T05:02:23.948Z,0.99
2022-12-05T05:12:28.111Z,1.09
2022-12-05T05:22:31.921Z,1.11
2022-12-05T05:32:35.706Z,0.90
2022-12-05T05:42:47.705Z,0.85
2022-12-05T05:52:51.526Z,0.85
2022-12-05T06:02:55.369Z,1.05
2022-12-05T06:13:01.105Z,1.23
2022-12-05T06:23:05.195Z,1.22
2022-12-05T06:33:09.576Z,1.21
2022-12-05T06:43:13.315Z,1.19
2022-12-05T06:53:17.711Z,1.33
2022-12-05T07:03:21.709Z,1.59
2022-12-05T07:13:26.053Z,1.80
2022-12-05T07:23:29.871Z,1.83
2022-12-05T07:33:34.165Z,1.82
2022-12-05T07:43:38.084Z,1.76
2022-12-05T07:53:44.229Z,1.77
2022-12-05T08:03:48.477Z,1.76
2022-12-05T08:13:53.464Z,1.76
2022-12-05T08:23:58.552Z,1.62
2022-12-05T08:34:03.345Z,1.73
2022-12-05T08:44:09.351Z,1.95
2022-12-05T08:54:14.062Z,2.49
2022-12-05T09:04:18.240Z,2.98
2022-12-05T09:14:22.716Z,3.22
2022-12-05T09:24:26.476Z,3.37
2022-12-05T09:34:30.451Z,3.61
2022-12-05T09:45:08.813Z,3.63
2022-12-05T09:55:19.223Z,3.76
2022-12-05T10:05:23.031Z,3.94
2022-12-05T10:15:57.548Z,4.24
2022-12-05T10:26:05.179Z,4.48
2022-12-05T10:36:16.091Z,4.62
2022-12-05T10:46:23.616Z,4.84
2022-12-05T10:56:40.151Z,4.94
2022-12-05T11:06:54.864Z,5.17
2022-12-05T11:17:01.744Z,5.40
2022-12-05T11:27:17.813Z,5.53
2022-12-05T11:37:30.322Z,5.61
2022-12-05T11:48:16.256Z,5.62
2022-12-05T11:58:25.950Z,5.68
2022-12-05T12:08:37.700Z,5.82
2022-12-05T12:18:50.472Z,5.92
2022-12-05T12:28:57.411Z,5.89
2022-12-05T12:39:42.491Z,5.83
2022-12-05T12:50:08.184Z,5.86
2022-12-05T13:00:20.655Z,5.88
2022-12-05T13:10:35.151Z,5.80
2022-12-05T13:20:41.100Z,5.61
2022-12-05T13:31:08.072Z,5.42
2022-12-05T13:41:30.671Z,5.23
2022-12-05T13:51:39.043Z,5.10
2022-12-05T14:01:52.009Z,4.83
2022-12-05T14:12:11.888Z,4.54
2022-12-05T14:22:37.738Z,4.19
2022-12-05T14:32:43.245Z,3.94
2022-12-05T14:42:58.264Z,3.61
2022-12-05T14:53:21.680Z,3.36
2022-12-05T15:03:32.887Z,3.16
2022-12-05T15:13:37.086Z,2.72
2022-12-05T15:23:56.203Z,2.48
2022-12-05T15:34:14.608Z,2.20
2022-12-05T15:44:26.698Z,1.92
2022-12-05T15:54:35.865Z,1.80
2022-12-05T16:04:49.464Z,1.69
2022-12-05T16:14:59.921Z,1.62
2022-12-05T16:25:18.060Z,1.59
2022-12-05T16:35:40.896Z,1.45
2022-12-05T16:45:47.189Z,1.38
2022-12-05T16:55:56.384Z,1.44
2022-12-05T17:06:01.836Z,1.39
2022-12-05T17:16:08.529Z,1.48
2022-12-05T17:26:23.017Z,1.65
2022-12-05T17:36:27.920Z,1.71
2022-12-05T17:46:32.627Z,1.77
2022-12-05T17:56:37.254Z,1.85
2022-12-05T18:06:43.897Z,2.05
2022-12-05T18:16:48.251Z,2.24
2022-12-05T18:26:52.894Z,2.28
2022-12-05T18:36:57.915Z,2.49
2022-12-05T18:47:04.601Z,2.61
2022-12-05T18:57:10.330Z,2.71
2022-12-05T19:07:19.307Z,2.64
2022-12-05T19:17:25.195Z,2.57
2022-12-05T19:27:29.928Z,2.56
2022-12-05T19:37:38.204Z,2.79
2022-12-05T19:47:44.587Z,2.98
2022-12-05T19:57:53.036Z,2.94
2022-12-05T20:07:58.989Z,2.99
2022-12-05T20:18:05.827Z,2.96
2022-12-05T20:28:11.485Z,2.96
2022-12-05T20:38:16.249Z,3.03
2022-12-05T20:48:23.727Z,2.99
2022-12-05T20:58:29.524Z,2.94
2022-12-05T21:08:33.810Z,2.87
2022-12-05T21:18:39.124Z,2.86
2022-12-05T21:28:44.567Z,2.84
2022-12-05T21:38:55.462Z,2.89
2022-12-05T21:49:01.259Z,2.91
2022-12-05T21:59:06.407Z,3.07
2022-12-05T22:09:12.560Z,3.19
2022-12-05T22:19:16.651Z,3.16
2022-12-05T22:29:21.534Z,3.03
2022-12-05T22:39:25.617Z,3.15
2022-12-05T22:49:30.005Z,3.23
2022-12-05T22:59:34.177Z,3.11
2022-12-05T23:09:38.354Z,3.14
2022-12-05T23:19:42.020Z,3.30
2022-12-05T23:29:46.904Z,3.45
2022-12-05T23:39:50.785Z,3.30
2022-12-05T23:49:54.851Z,3.29
2022-12-05T23:59:58.930Z,3.22
